Time;durP1;ratioP1;P1;durP2;ratioP2;P2;SDS_P1;SDS_P2;PMS_P1;PMS_P2;Temp;Humidity;BMP_temperature;BMP_pressure;BME280_temperature;BME280_humidity;BME280_pressure;Samples;Min_cycle;Max_cycle;Signal;HPM_P1;HPM_P2
2022/05/30 00:01:13;;;;;;;5.13;1.90;;;8.80;99.90;;;;;;5035269;28;20092;-70
2022/05/30 00:03:39;;;;;;;8.38;1.75;;;8.90;99.90;;;;;;5052550;28;20432;-70
2022/05/30 00:06:11;;;;;;;5.88;1.75;;;8.90;99.90;;;;;;5052995;28;20040;-70
2022/05/30 00:08:36;;;;;;;6.10;1.35;;;9.00;99.90;;;;;;5053422;28;20048;-70
2022/05/30 00:11:04;;;;;;;5.93;1.40;;;8.90;99.90;;;;;;5052258;28;20035;-70
2022/05/30 00:13:31;;;;;;;3.97;1.80;;;8.90;99.90;;;;;;5051699;28;20048;-70
2022/05/30 00:15:57;;;;;;;3.40;1.38;;;8.90;99.90;;;;;;5052574;28;20482;-69
2022/05/30 00:18:22;;;;;;;4.80;1.65;;;8.90;99.90;;;;;;5050624;28;20122;-70
2022/05/30 00:20:49;;;;;;;4.20;1.58;;;8.90;99.90;;;;;;5052024;28;20055;-69
2022/05/30 00:23:15;;;;;;;5.10;2.13;;;8.90;99.90;;;;;;5052684;28;20390;-70
2022/05/30 00:25:42;;;;;;;6.53;1.92;;;8.80;99.90;;;;;;5034527;28;20425;-70
2022/05/30 00:28:08;;;;;;;8.45;1.80;;;8.80;99.90;;;;;;5051789;28;20095;-70
2022/05/30 00:30:34;;;;;;;7.97;1.83;;;8.70;99.90;;;;;;5052530;28;20083;-70
2022/05/30 00:32:59;;;;;;;3.83;1.30;;;8.70;99.90;;;;;;5050520;28;20077;-70
2022/05/30 00:35:25;;;;;;;7.20;2.10;;;8.70;99.90;;;;;;5051342;28;20071;-70
2022/05/30 00:37:51;;;;;;;8.95;2.10;;;8.60;99.90;;;;;;5052359;28;20041;-70
2022/05/30 00:40:17;;;;;;;5.03;1.23;;;;;;;;;;5050415;28;20075;-70
2022/05/30 00:42:43;;;;;;;4.30;1.38;;;;;;;;;;5052638;28;20094;-70
2022/05/30 00:45:09;;;;;;;4.40;1.40;;;;;;;;;;5050070;28;20040;-70
2022/05/30 00:47:36;;;;;;;7.15;1.95;;;;;;;;;;5052716;28;20037;-70
2022/05/30 00:50:02;;;;;;;5.10;1.80;;;;;;;;;;5052454;28;20102;-70
2022/05/30 00:52:31;;;;;;;4.85;1.65;;;;;;;;;;5050543;28;20586;-70
2022/05/30 00:54:59;;;;;;;6.40;1.83;;;;;;;;;;5052111;28;20048;-70
2022/05/30 00:57:27;;;;;;;5.07;1.88;;;8.30;99.90;;;;;;5052036;28;20353;-70
2022/05/30 01:00:08;;;;;;;3.80;1.50;;;8.30;99.90;;;;;;5051137;28;20051;-70
2022/05/30 01:02:36;;;;;;;6.38;2.05;;;8.20;99.90;;;;;;5051140;28;20052;-70
2022/05/30 01:07:48;;;;;;;7.43;2.05;;;8.10;99.90;;;;;;5050342;28;20134;-69
2022/05/30 01:10:20;;;;;;;8.20;1.90;;;8.00;99.90;;;;;;5050716;28;20095;-69
2022/05/30 01:12:52;;;;;;;5.35;1.83;;;8.00;99.90;;;;;;5052399;28;20095;-70
2022/05/30 01:15:21;;;;;;;4.88;1.95;;;8.00;99.90;;;;;;5049967;28;20206;-70
2022/05/30 01:17:50;;;;;;;4.75;1.80;;;7.90;99.90;;;;;;5050839;28;20057;-69
2022/05/30 01:20:39;;;;;;;4.65;1.70;;;7.90;99.90;;;;;;5033754;28;20643;-69
2022/05/30 01:23:17;;;;;;;5.55;1.73;;;7.90;99.90;;;;;;5044936;28;20053;-69
2022/05/30 01:26:08;;;;;;;6.28;1.90;;;7.80;99.90;;;;;;5050839;28;20052;-70
2022/05/30 01:28:40;;;;;;;5.07;1.55;;;7.80;99.90;;;;;;5051332;28;20052;-69
2022/05/30 01:31:06;;;;;;;4.78;1.67;;;7.80;99.90;;;;;;5050396;28;20498;-69
2022/05/30 01:33:32;;;;;;;5.45;2.55;;;7.70;99.90;;;;;;5034090;28;20080;-69
2022/05/30 01:35:58;;;;;;;7.05;2.40;;;7.70;99.90;;;;;;5050023;28;20076;-69
2022/05/30 01:38:24;;;;;;;4.30;2.13;;;7.70;99.90;;;;;;5051679;28;20105;-69
2022/05/30 01:40:50;;;;;;;7.50;2.58;;;7.70;99.90;;;;;;5053362;28;20040;-69
2022/05/30 01:43:16;;;;;;;4.78;2.28;;;7.70;99.90;;;;;;5054616;28;20517;-69
2022/05/30 01:45:42;;;;;;;6.20;2.25;;;7.70;99.90;;;;;;5055740;28;20116;-69
2022/05/30 01:48:08;;;;;;;5.22;2.10;;;7.70;99.90;;;;;;5054055;28;20148;-69
2022/05/30 01:50:34;;;;;;;5.70;2.05;;;7.70;99.90;;;;;;5055280;28;20048;-69
2022/05/30 01:53:00;;;;;;;6.63;2.40;;;7.70;99.90;;;;;;5054319;28;20405;-69
2022/05/30 01:55:25;;;;;;;7.57;2.38;;;7.70;99.90;;;;;;5053979;28;20044;-69
2022/05/30 01:57:51;;;;;;;4.55;2.13;;;7.80;99.90;;;;;;5053451;28;20041;-69
2022/05/30 02:00:17;;;;;;;6.45;2.30;;;7.70;99.90;;;;;;5054295;28;20045;-69
2022/05/30 02:02:43;;;;;;;5.82;2.20;;;7.80;99.90;;;;;;5053550;28;20397;-69
2022/05/30 02:05:10;;;;;;;9.02;2.53;;;7.80;99.90;;;;;;5054830;28;20080;-69
2022/05/30 02:07:36;;;;;;;7.50;2.80;;;7.70;99.90;;;;;;5055611;28;20037;-69
2022/05/30 02:10:03;;;;;;;5.53;2.00;;;7.80;99.90;;;;;;5053280;28;20434;-69
2022/05/30 02:12:28;;;;;;;6.70;2.67;;;7.80;99.90;;;;;;5053631;28;20047;-69
2022/05/30 02:14:54;;;;;;;5.78;2.47;;;7.80;99.90;;;;;;5055326;28;20116;-69
2022/05/30 02:17:20;;;;;;;7.50;2.45;;;7.80;99.90;;;;;;5053127;28;20037;-69
2022/05/30 02:19:46;;;;;;;9.35;2.67;;;7.90;99.90;;;;;;5053848;28;20053;-69
2022/05/30 02:22:18;;;;;;;7.70;2.70;;;7.90;99.90;;;;;;5054714;28;20040;-70
2022/05/30 02:24:44;;;;;;;7.85;3.08;;;7.90;99.90;;;;;;5036906;28;20389;-69
2022/05/30 02:27:12;;;;;;;7.60;2.38;;;7.90;99.90;;;;;;5054478;28;20075;-69
2022/05/30 02:29:38;;;;;;;7.25;2.28;;;7.90;99.90;;;;;;5055294;28;20049;-69
2022/05/30 02:32:05;;;;;;;8.18;2.83;;;7.90;99.90;;;;;;5053991;28;20116;-69
2022/05/30 02:37:15;;;;;;;8.18;2.90;;;7.90;99.90;;;;;;5054755;28;20064;-69
2022/05/30 02:39:40;;;;;;;12.88;2.70;;;7.90;99.90;;;;;;5052662;28;20127;-69
2022/05/30 02:42:07;;;;;;;8.25;3.13;;;7.90;99.90;;;;;;5053193;28;20123;-69
2022/05/30 02:44:33;;;;;;;5.30;2.33;;;7.90;99.90;;;;;;5036839;28;20037;-69
2022/05/30 02:46:59;;;;;;;7.53;2.42;;;7.90;99.90;;;;;;5052447;28;20370;-69
2022/05/30 02:49:26;;;;;;;5.90;2.53;;;7.90;99.90;;;;;;5054517;28;20068;-69
2022/05/30 02:51:52;;;;;;;7.25;2.35;;;7.90;99.90;;;;;;5053132;28;20045;-69
2022/05/30 02:54:18;;;;;;;5.63;2.38;;;7.90;99.90;;;;;;5053005;28;20371;-69
2022/05/30 02:56:53;;;;;;;4.85;2.30;;;7.90;99.90;;;;;;5054613;28;20044;-69
2022/05/30 02:59:20;;;;;;;7.47;2.28;;;7.90;99.90;;;;;;5053425;28;20044;-69
2022/05/30 03:01:45;;;;;;;5.97;2.25;;;7.80;99.90;;;;;;5053309;28;20052;-69
2022/05/30 03:04:12;;;;;;;7.10;2.13;;;7.80;99.90;;;;;;5036020;28;20037;-69
2022/05/30 03:06:38;;;;;;;6.55;1.80;;;7.80;99.90;;;;;;5052616;28;20102;-69
2022/05/30 03:09:05;;;;;;;6.13;1.65;;;7.80;99.90;;;;;;5053005;28;20041;-69
2022/05/30 03:11:31;;;;;;;5.03;2.33;;;7.80;99.90;;;;;;5054422;28;20062;-69
2022/05/30 03:13:57;;;;;;;7.25;2.10;;;7.70;99.90;;;;;;5052189;28;20513;-69
2022/05/30 03:16:23;;;;;;;5.00;2.03;;;7.80;99.90;;;;;;5052640;28;20045;-69
2022/05/30 03:18:48;;;;;;;4.68;1.83;;;7.80;99.90;;;;;;5053731;28;20060;-69
2022/05/30 03:21:14;;;;;;;4.82;1.80;;;7.80;99.90;;;;;;5052958;28;20045;-69
2022/05/30 03:23:40;;;;;;;5.10;2.20;;;7.70;99.90;;;;;;5054241;28;20041;-69
2022/05/30 03:26:06;;;;;;;6.68;1.92;;;7.80;99.90;;;;;;5052179;28;20079;-69
2022/05/30 03:28:34;;;;;;;4.78;1.77;;;7.80;99.90;;;;;;5035329;28;20127;-69
2022/05/30 03:31:00;;;;;;;8.07;2.10;;;7.80;99.90;;;;;;5052275;28;20520;-69
2022/05/30 03:33:26;;;;;;;5.70;2.05;;;7.90;99.90;;;;;;5052641;28;20061;-69
2022/05/30 03:35:52;;;;;;;6.47;2.28;;;7.90;99.90;;;;;;5052799;28;20458;-69
2022/05/30 03:38:19;;;;;;;7.45;2.35;;;7.90;99.90;;;;;;5053536;28;20083;-69
2022/05/30 03:40:44;;;;;;;4.72;2.05;;;8.00;99.90;;;;;;5053657;28;20048;-69
2022/05/30 03:43:11;;;;;;;4.57;2.05;;;8.00;99.90;;;;;;5052495;28;20041;-69
2022/05/30 03:45:39;;;;;;;6.30;1.92;;;8.00;99.90;;;;;;5053786;28;20041;-69
2022/05/30 03:48:06;;;;;;;7.80;2.20;;;8.10;99.90;;;;;;5051239;28;20044;-69
2022/05/30 03:50:32;;;;;;;6.57;2.00;;;8.10;99.90;;;;;;5035850;28;20124;-69
2022/05/30 03:53:04;;;;;;;6.25;2.13;;;8.10;99.90;;;;;;5052075;28;20146;-69
2022/05/30 03:55:36;;;;;;;7.25;2.08;;;8.20;99.90;;;;;;5052761;28;20052;-69
2022/05/30 03:58:03;;;;;;;6.00;1.75;;;8.20;99.90;;;;;;5052109;28;20399;-69
2022/05/30 04:00:30;;;;;;;6.68;2.53;;;8.20;99.90;;;;;;5051795;28;20045;-69
2022/05/30 04:02:55;;;;;;;8.32;2.05;;;8.20;99.90;;;;;;5051456;28;20379;-69
2022/05/30 04:05:21;;;;;;;5.63;1.95;;;8.30;99.90;;;;;;5053201;28;20091;-69
2022/05/30 04:07:47;;;;;;;7.10;2.00;;;8.30;99.90;;;;;;5053039;28;20032;-69
2022/05/30 04:10:13;;;;;;;6.10;1.92;;;8.30;99.90;;;;;;5051903;28;20071;-69
2022/05/30 04:12:39;;;;;;;4.65;1.67;;;8.30;99.90;;;;;;5051959;28;20459;-69
2022/05/30 04:15:07;;;;;;;4.55;1.80;;;8.40;99.90;;;;;;5034758;28;20043;-69
2022/05/30 04:17:35;;;;;;;6.60;2.20;;;8.40;99.90;;;;;;5052274;28;20389;-69
2022/05/30 04:20:02;;;;;;;5.88;2.33;;;8.50;99.90;;;;;;5051882;28;20119;-69
2022/05/30 04:22:29;;;;;;;5.63;2.20;;;8.50;99.90;;;;;;5051496;28;20425;-69
2022/05/30 04:24:55;;;;;;;6.45;2.00;;;8.50;99.90;;;;;;5050943;28;20055;-69
2022/05/30 04:27:21;;;;;;;10.80;2.30;;;8.60;99.90;;;;;;5051565;28;20044;-69
2022/05/30 04:29:48;;;;;;;5.07;1.95;;;8.60;99.90;;;;;;5052741;28;20076;-69
2022/05/30 04:32:16;;;;;;;5.50;1.95;;;8.70;99.90;;;;;;5033924;28;20094;-69
2022/05/30 04:34:42;;;;;;;4.40;1.63;;;8.80;99.90;;;;;;5051615;28;20552;-69
2022/05/30 04:37:08;;;;;;;6.00;1.80;;;8.90;99.90;;;;;;5052175;28;20037;-68
2022/05/30 04:39:33;;;;;;;6.60;2.38;;;8.90;99.90;;;;;;5050601;28;20040;-69
2022/05/30 04:41:59;;;;;;;4.68;1.77;;;9.00;99.90;;;;;;5052331;28;20517;-69
2022/05/30 04:44:25;;;;;;;2.95;1.38;;;9.00;99.90;;;;;;5050384;28;20045;-68
2022/05/30 04:46:55;;;;;;;4.10;1.48;;;9.10;99.90;;;;;;5050919;28;20037;-68
2022/05/30 04:49:22;;;;;;;3.58;1.25;;;9.10;99.90;;;;;;5051058;28;20048;-68
2022/05/30 04:51:48;;;;;;;4.50;1.30;;;9.20;99.90;;;;;;5051557;28;20111;-68
2022/05/30 04:54:14;;;;;;;3.28;1.33;;;9.30;99.90;;;;;;5050887;28;20083;-69
2022/05/30 04:56:40;;;;;;;3.42;1.52;;;9.30;99.90;;;;;;5052384;28;20068;-69
2022/05/30 04:59:07;;;;;;;4.20;1.55;;;9.30;99.90;;;;;;5050925;28;20041;-69
2022/05/30 05:01:33;;;;;;;3.45;1.30;;;9.40;99.90;;;;;;5051302;28;20045;-69
2022/05/30 05:03:59;;;;;;;4.72;1.38;;;9.40;99.90;;;;;;5051287;28;20041;-69
2022/05/30 05:06:25;;;;;;;4.13;1.30;;;9.40;99.90;;;;;;5051164;28;20481;-69
2022/05/30 05:08:51;;;;;;;3.42;1.20;;;9.50;99.90;;;;;;5052151;28;20041;-68
2022/05/30 05:11:31;;;;;;;3.38;1.02;;;9.60;99.90;;;;;;5051041;28;20052;-69
2022/05/30 05:13:57;;;;;;;3.97;1.23;;;9.70;99.90;;;;;;5050879;28;20119;-69
2022/05/30 05:16:26;;;;;;;4.47;1.27;;;9.90;99.90;;;;;;5052072;28;20174;-69
2022/05/30 05:18:52;;;;;;;3.05;1.13;;;10.00;99.90;;;;;;5033655;28;20052;-69
2022/05/30 05:21:22;;;;;;;2.85;1.20;;;10.10;99.90;;;;;;5050008;28;20205;-69
2022/05/30 05:23:48;;;;;;;3.38;1.35;;;10.20;99.90;;;;;;5051038;28;20036;-69
2022/05/30 05:26:15;;;;;;;3.60;1.50;;;10.20;99.90;;;;;;5041155;28;20044;-69
2022/05/30 05:28:41;;;;;;;4.68;1.80;;;10.30;99.90;;;;;;5043612;28;20047;-69
2022/05/30 05:31:08;;;;;;;4.53;2.10;;;10.40;99.90;;;;;;5050110;28;20041;-69
2022/05/30 05:33:34;;;;;;;5.32;1.17;;;10.50;99.90;;;;;;5044789;28;20060;-69
2022/05/30 05:36:01;;;;;;;3.72;1.23;;;10.50;99.90;;;;;;5036747;28;20088;-69
2022/05/30 05:38:27;;;;;;;4.03;1.83;;;10.40;99.90;;;;;;5044991;28;20076;-68
2022/05/30 05:40:52;;;;;;;3.53;1.10;;;10.40;99.90;;;;;;5043575;28;20076;-69
2022/05/30 05:43:19;;;;;;;3.90;1.25;;;10.40;99.90;;;;;;5036292;28;20477;-68
2022/05/30 05:45:46;;;;;;;3.53;1.30;;;10.30;99.90;;;;;;5050295;28;20041;-68
2022/05/30 05:48:13;;;;;;;3.50;1.30;;;10.30;99.90;;;;;;5050595;28;20049;-69
2022/05/30 05:50:43;;;;;;;3.80;1.30;;;10.40;99.90;;;;;;5051940;28;20094;-68
2022/05/30 05:53:10;;;;;;;6.07;1.67;;;10.40;99.90;;;;;;5049691;28;20048;-69
2022/05/30 05:55:37;;;;;;;6.30;1.88;;;10.40;99.90;;;;;;5034310;28;20056;-69
2022/05/30 05:58:04;;;;;;;3.78;1.30;;;10.40;99.90;;;;;;5027408;28;20048;-69
2022/05/30 06:00:31;;;;;;;3.35;1.30;;;10.40;99.90;;;;;;5028003;28;20052;-69
2022/05/30 06:02:58;;;;;;;5.63;1.40;;;10.40;99.90;;;;;;5028130;28;20045;-69
2022/05/30 06:05:23;;;;;;;4.35;1.20;;;10.40;99.90;;;;;;5028800;28;20041;-69
2022/05/30 06:07:49;;;;;;;8.35;1.30;;;10.40;99.90;;;;;;5027452;28;20068;-68
2022/05/30 06:10:16;;;;;;;4.82;1.13;;;10.60;99.90;;;;;;5017273;28;20490;-69
2022/05/30 06:12:44;;;;;;;3.40;1.25;;;10.70;99.90;;;;;;5036476;28;20120;-69
2022/05/30 06:15:15;;;;;;;3.88;1.67;;;10.70;99.90;;;;;;5036365;28;20069;-67
2022/05/30 06:17:42;;;;;;;4.10;1.50;;;10.70;99.90;;;;;;5026624;28;20506;-67
2022/05/30 06:20:10;;;;;;;4.22;1.67;;;10.70;99.90;;;;;;5040980;28;20056;-67
2022/05/30 06:22:35;;;;;;;4.97;1.40;;;10.70;99.90;;;;;;5048056;28;20401;-67
2022/05/30 06:25:01;;;;;;;5.65;1.45;;;10.70;99.90;;;;;;5046006;28;20128;-67
2022/05/30 06:27:26;;;;;;;3.95;1.08;;;10.80;99.90;;;;;;5049757;28;20081;-67
2022/05/30 06:29:52;;;;;;;4.95;1.60;;;10.70;99.90;;;;;;5045937;28;20039;-67
2022/05/30 06:32:18;;;;;;;4.90;1.30;;;10.60;99.90;;;;;;5046989;28;20076;-67
2022/05/30 06:34:44;;;;;;;2.92;1.23;;;10.70;99.90;;;;;;5056390;28;20449;-67
2022/05/30 06:37:13;;;;;;;7.03;1.73;;;10.70;99.90;;;;;;5066654;28;20048;-66
2022/05/30 06:39:39;;;;;;;3.75;1.30;;;10.80;99.90;;;;;;5058454;28;20051;-67
2022/05/30 06:42:11;;;;;;;3.85;1.38;;;10.80;99.90;;;;;;5061126;28;20454;-67
2022/05/30 06:44:38;;;;;;;4.47;1.10;;;10.80;99.90;;;;;;5052097;28;20045;-67
2022/05/30 06:47:04;;;;;;;6.65;1.42;;;10.80;99.90;;;;;;5065839;28;20033;-67
2022/05/30 06:49:30;;;;;;;3.92;1.30;;;10.90;99.90;;;;;;5036889;28;20051;-67
2022/05/30 06:51:56;;;;;;;3.67;1.17;;;10.90;99.90;;;;;;5051223;28;20041;-67
2022/05/30 06:54:22;;;;;;;4.30;1.10;;;10.90;99.90;;;;;;5063706;28;20048;-67
2022/05/30 06:59:32;;;;;;;5.72;2.25;;;11.10;99.90;;;;;;5063754;28;20106;-67
2022/05/30 07:02:00;;;;;;;4.50;1.15;;;11.60;99.90;;;;;;5050428;28;20478;-67
2022/05/30 07:04:28;;;;;;;3.83;1.20;;;11.90;99.90;;;;;;5053262;28;20052;-67
2022/05/30 07:06:54;;;;;;;3.30;1.20;;;12.30;99.90;;;;;;5056350;28;20619;-67
2022/05/30 07:09:20;;;;;;;2.85;1.10;;;12.40;99.90;;;;;;5042273;28;20038;-67
2022/05/30 07:11:46;;;;;;;5.38;1.20;;;12.20;99.90;;;;;;5046489;28;20083;-68
2022/05/30 07:14:12;;;;;;;6.97;1.33;;;12.00;99.90;;;;;;5056737;28;20072;-68
2022/05/30 07:16:39;;;;;;;3.95;1.30;;;11.80;99.90;;;;;;5048820;28;20045;-68
2022/05/30 07:19:09;;;;;;;3.60;1.23;;;;;;;;;;5049879;28;20061;-68
2022/05/30 07:21:35;;;;;;;5.10;1.48;;;;;;;;;;5063026;28;20041;-68
2022/05/30 07:24:00;;;;;;;4.95;1.60;;;11.20;99.90;;;;;;5048264;28;20541;-68
2022/05/30 07:26:26;;;;;;;5.00;1.40;;;11.00;99.90;;;;;;5052929;28;20074;-68
2022/05/30 07:28:51;;;;;;;4.40;1.25;;;10.90;99.90;;;;;;5057726;28;20067;-68
2022/05/30 07:31:20;;;;;;;3.40;1.13;;;10.90;99.90;;;;;;5052442;28;20039;-68
2022/05/30 07:33:48;;;;;;;6.50;1.80;;;11.00;99.90;;;;;;5061106;28;20128;-68
2022/05/30 07:36:26;;;;;;;8.07;1.70;;;11.00;99.90;;;;;;5062455;28;20481;-68
2022/05/30 07:38:53;;;;;;;4.53;1.48;;;11.10;99.90;;;;;;5053534;28;20124;-67
2022/05/30 07:41:20;;;;;;;4.25;1.25;;;11.00;99.90;;;;;;5065154;28;20068;-67
2022/05/30 07:43:45;;;;;;;3.83;1.02;;;11.10;99.90;;;;;;5056958;28;20470;-67
2022/05/30 07:46:14;;;;;;;2.88;1.00;;;11.20;99.90;;;;;;5055590;28;20125;-68
2022/05/30 07:48:40;;;;;;;2.60;0.90;;;11.30;99.90;;;;;;5063631;28;20048;-67
2022/05/30 07:51:07;;;;;;;2.42;0.90;;;11.40;99.90;;;;;;5043800;28;20045;-67
2022/05/30 07:53:34;;;;;;;3.25;1.02;;;11.40;99.90;;;;;;5052063;28;20045;-67
2022/05/30 07:56:06;;;;;;;5.68;1.02;;;11.50;99.90;;;;;;5045292;28;20502;-68
2022/05/30 07:58:33;;;;;;;5.55;1.30;;;11.50;99.90;;;;;;5058060;28;20094;-67
2022/05/30 08:00:59;;;;;;;3.72;1.20;;;11.50;99.90;;;;;;5063726;28;20037;-67
2022/05/30 08:03:26;;;;;;;4.18;0.98;;;11.50;99.90;;;;;;5066342;28;20052;-67
2022/05/30 08:06:17;;;;;;;3.97;1.48;;;11.50;99.90;;;;;;5047955;28;20033;-67
2022/05/30 08:08:42;;;;;;;2.65;1.00;;;11.60;99.90;;;;;;5037537;28;20037;-67
2022/05/30 08:11:09;;;;;;;2.17;1.00;;;11.60;99.90;;;;;;5043935;28;20645;-67
2022/05/30 08:13:34;;;;;;;2.97;0.70;;;11.80;99.90;;;;;;5068011;28;20043;-65
2022/05/30 08:16:00;;;;;;;1.65;0.73;;;11.90;99.90;;;;;;5057011;28;20041;-64
2022/05/30 08:18:26;;;;;;;4.22;0.88;;;12.30;99.90;;;;;;5043765;28;20068;-65
2022/05/30 08:20:52;;;;;;;3.42;0.80;;;12.40;99.90;;;;;;5056377;28;20037;-65
2022/05/30 08:23:18;;;;;;;5.28;1.27;;;12.50;99.90;;;;;;5063306;28;20036;-64
2022/05/30 08:25:47;;;;;;;4.10;0.82;;;12.50;99.90;;;;;;5052786;28;20060;-64
2022/05/30 08:28:13;;;;;;;4.32;1.05;;;12.40;99.90;;;;;;5057098;28;20041;-66
2022/05/30 08:30:39;;;;;;;1.58;0.70;;;12.50;99.90;;;;;;5049931;28;20398;-66
2022/05/30 08:33:14;;;;;;;3.15;0.77;;;12.60;99.90;;;;;;5024900;28;20048;-67
2022/05/30 08:35:40;;;;;;;2.35;0.73;;;12.70;99.90;;;;;;5046704;28;20082;-67
2022/05/30 08:38:06;;;;;;;4.05;0.98;;;12.80;99.90;;;;;;5054125;28;20042;-67
2022/05/30 08:43:30;;;;;;;3.08;1.38;;;12.90;99.90;;;;;;5071404;28;20052;-67
2022/05/30 08:46:24;;;;;;;3.05;0.88;;;13.00;99.90;;;;;;5057235;28;20366;-67
2022/05/30 08:48:59;;;;;;;5.97;1.20;;;13.20;99.90;;;;;;5033353;28;20081;-65
2022/05/30 08:51:43;;;;;;;5.13;0.60;;;13.40;99.90;;;;;;5049906;28;20033;-64
2022/05/30 08:54:42;;;;;;;2.67;0.90;;;13.50;99.90;;;;;;5043111;28;20468;-66
2022/05/30 08:57:30;;;;;;;3.53;0.95;;;13.40;99.90;;;;;;5051966;28;20076;-65
2022/05/30 09:00:14;;;;;;;2.28;0.90;;;13.20;99.90;;;;;;5050591;28;20405;-65
2022/05/30 09:02:49;;;;;;;3.17;0.80;;;13.00;99.90;;;;;;5051036;28;20083;-65
2022/05/30 09:05:23;;;;;;;5.03;0.90;;;12.90;99.90;;;;;;5049445;28;20041;-65
2022/05/30 09:07:52;;;;;;;3.15;1.08;;;12.80;99.90;;;;;;5052247;28;20041;-65
2022/05/30 09:10:48;;;;;;;3.30;0.95;;;12.70;99.90;;;;;;5033999;28;20046;-65
2022/05/30 09:13:27;;;;;;;1.65;0.80;;;12.60;99.90;;;;;;5042442;28;20042;-65
2022/05/30 09:16:17;;;;;;;3.00;0.90;;;12.60;99.90;;;;;;5044282;28;20045;-65
2022/05/30 09:18:50;;;;;;;4.07;0.90;;;12.50;99.90;;;;;;5050058;28;20057;-64
2022/05/30 09:21:18;;;;;;;4.43;1.10;;;12.60;99.90;;;;;;5034989;28;20038;-65
2022/05/30 09:23:44;;;;;;;4.13;0.95;;;12.50;99.90;;;;;;5036042;28;20028;-64
2022/05/30 09:26:25;;;;;;;3.63;1.10;;;12.50;99.90;;;;;;5043076;28;20141;-65
2022/05/30 09:28:52;;;;;;;2.65;0.50;;;12.40;99.90;;;;;;5030735;28;20099;-65
2022/05/30 09:31:21;;;;;;;3.45;0.90;;;12.30;99.90;;;;;;5031928;28;20045;-65
2022/05/30 09:33:58;;;;;;;3.75;0.80;;;12.20;99.90;;;;;;5030491;28;20038;-65
2022/05/30 09:36:29;;;;;;;2.13;0.93;;;12.10;99.90;;;;;;5032638;28;20041;-65
2022/05/30 09:38:59;;;;;;;1.63;0.70;;;12.00;99.90;;;;;;5030789;28;20390;-65
2022/05/30 09:41:28;;;;;;;1.50;0.65;;;12.00;99.90;;;;;;5031322;28;20059;-65
2022/05/30 09:44:03;;;;;;;3.58;1.00;;;12.00;99.90;;;;;;5031701;28;20128;-65
2022/05/30 09:47:15;;;;;;;2.03;0.70;;;12.00;99.90;;;;;;5031924;28;20038;-65
2022/05/30 09:49:43;;;;;;;3.10;0.60;;;12.10;99.90;;;;;;5025196;28;20360;-66
2022/05/30 09:52:23;;;;;;;4.57;1.10;;;12.20;99.90;;;;;;5032149;28;20040;-65
2022/05/30 09:54:48;;;;;;;2.92;1.00;;;12.30;99.90;;;;;;5035143;28;20064;-65
2022/05/30 09:57:27;;;;;;;4.30;1.38;;;12.40;99.90;;;;;;5033811;28;20539;-65
2022/05/30 09:59:56;;;;;;;5.78;1.20;;;12.40;99.90;;;;;;5027681;28;20037;-65
2022/05/30 10:02:28;;;;;;;3.58;1.20;;;12.40;99.90;;;;;;5034939;28;20037;-66
2022/05/30 10:05:22;;;;;;;10.02;1.52;;;12.50;99.90;;;;;;5036624;28;20118;-65
2022/05/30 10:08:00;;;;;;;2.80;0.93;;;12.50;99.90;;;;;;5033969;28;20509;-65
2022/05/30 10:10:39;;;;;;;6.00;1.20;;;12.40;99.90;;;;;;5034100;28;20494;-65
2022/05/30 10:13:07;;;;;;;4.47;1.00;;;12.30;99.90;;;;;;5034205;28;20124;-65
2022/05/30 10:15:37;;;;;;;2.67;0.90;;;12.30;99.90;;;;;;5034990;28;20087;-66
2022/05/30 10:18:18;;;;;;;3.17;0.75;;;12.40;99.90;;;;;;5039673;28;20045;-65
2022/05/30 10:21:22;;;;;;;2.38;0.90;;;12.40;99.90;;;;;;5049151;28;20041;-65
2022/05/30 10:29:53;;;;;;;3.17;0.82;;;12.90;99.90;;;;;;5047534;28;20063;-65
2022/05/30 10:32:22;;;;;;;2.20;0.82;;;12.90;99.90;;;;;;5047533;28;20128;-65
2022/05/30 10:35:18;;;;;;;3.08;0.80;;;12.90;99.90;;;;;;5054029;28;20068;-65
2022/05/30 10:38:05;;;;;;;4.32;1.10;;;12.80;99.90;;;;;;5054617;28;20043;-66
2022/05/30 10:40:37;;;;;;;1.77;0.70;;;12.60;99.90;;;;;;5053028;28;20045;-66
2022/05/30 10:43:20;;;;;;;2.72;0.90;;;12.60;99.90;;;;;;5034086;28;20091;-65
2022/05/30 10:46:06;;;;;;;3.97;0.75;;;12.70;99.90;;;;;;5033911;28;20045;-65
2022/05/30 10:48:42;;;;;;;3.20;0.60;;;12.70;99.90;;;;;;5038284;28;20561;-66
2022/05/30 10:51:18;;;;;;;3.80;1.17;;;12.70;99.90;;;;;;5054664;28;20128;-66
2022/05/30 10:53:57;;;;;;;3.53;0.88;;;12.80;99.90;;;;;;5035407;28;20045;-66
2022/05/30 10:56:39;;;;;;;3.55;1.35;;;12.90;99.90;;;;;;5054295;28;20037;-66
2022/05/30 10:59:34;;;;;;;3.25;0.90;;;13.00;99.90;;;;;;5052202;28;20398;-66
2022/05/30 11:02:31;;;;;;;1.83;0.77;;;13.30;99.90;;;;;;5054234;28;20045;-66
2022/05/30 11:05:10;;;;;;;3.17;0.95;;;13.50;99.90;;;;;;5026738;28;20195;-66
2022/05/30 11:08:00;;;;;;;5.45;1.00;;;13.90;99.90;;;;;;5037302;28;20124;-65
2022/05/30 11:10:44;;;;;;;2.28;1.10;;;14.10;99.90;;;;;;5033199;28;20049;-66
2022/05/30 11:13:40;;;;;;;4.45;0.93;;;14.20;99.90;;;;;;5031855;28;20073;-65
2022/05/30 11:16:28;;;;;;;6.03;1.40;;;14.30;99.90;;;;;;5034023;28;20455;-66
2022/05/30 11:19:16;;;;;;;5.35;1.30;;;14.30;99.90;;;;;;5031989;28;20146;-66
2022/05/30 11:21:48;;;;;;;2.92;1.30;;;14.40;99.90;;;;;;5033492;28;20041;-66
2022/05/30 11:24:15;;;;;;;4.97;2.15;;;14.40;99.90;;;;;;5037874;28;20045;-66
2022/05/30 11:27:01;;;;;;;9.50;2.85;;;14.30;99.90;;;;;;5052995;28;20044;-66
2022/05/30 11:30:02;;;;;;;6.10;1.35;;;14.30;99.90;;;;;;5052887;28;20067;-66
2022/05/30 11:33:02;;;;;;;7.28;2.33;;;14.20;99.90;;;;;;5051036;28;20091;-65
2022/05/30 11:35:35;;;;;;;4.15;1.20;;;14.10;99.90;;;;;;5032864;28;20099;-66
2022/05/30 11:38:23;;;;;;;4.32;1.48;;;14.00;99.90;;;;;;5039703;28;20405;-66
2022/05/30 11:41:27;;;;;;;6.65;1.35;;;13.90;99.90;;;;;;5069672;28;20071;-65
2022/05/30 11:44:23;;;;;;;2.55;0.98;;;13.90;99.90;;;;;;5064733;28;20102;-66
2022/05/30 11:47:12;;;;;;;2.25;0.98;;;13.80;99.90;;;;;;5033108;28;20048;-66
2022/05/30 11:49:54;;;;;;;4.22;0.98;;;13.80;99.90;;;;;;5035814;28;20045;-66
2022/05/30 11:52:44;;;;;;;2.88;1.10;;;13.70;99.90;;;;;;5053298;28;20556;-65
2022/05/30 11:55:15;;;;;;;4.03;1.33;;;13.80;99.90;;;;;;5036635;28;20371;-65
2022/05/30 11:58:09;;;;;;;2.80;1.15;;;13.80;99.90;;;;;;5054283;28;20052;-65
2022/05/30 12:00:43;;;;;;;4.57;0.88;;;13.70;99.90;;;;;;5022637;28;20506;-67
2022/05/30 12:03:19;;;;;;;2.93;0.70;;;13.70;99.90;;;;;;5038962;28;20147;-64
2022/05/30 12:06:09;;;;;;;3.83;1.10;;;13.70;99.90;;;;;;5033544;28;20041;-70
2022/05/30 12:08:53;;;;;;;2.92;0.90;;;13.70;99.90;;;;;;5058293;28;20051;-70
2022/05/30 12:15:18;;;;;;;3.60;0.85;;;13.70;99.90;;;;;;5046927;28;20027;-69
2022/05/30 12:24:15;;;;;;;2.78;0.85;;;14.10;99.90;;;;;;5048271;28;20049;-67
2022/05/30 12:26:56;;;;;;;4.32;0.73;;;14.00;99.90;;;;;;5053509;28;20033;-67
2022/05/30 12:29:37;;;;;;;3.53;1.10;;;14.00;99.90;;;;;;5053227;28;20041;-68
2022/05/30 12:32:21;;;;;;;4.00;1.00;;;14.00;99.90;;;;;;5056777;28;20091;-66
2022/05/30 12:35:05;;;;;;;2.42;1.00;;;13.80;99.90;;;;;;5051270;28;20494;-66
2022/05/30 12:38:02;;;;;;;1.65;0.80;;;13.80;99.90;;;;;;5047097;28;20435;-67
2022/05/30 12:40:27;;;;;;;2.58;1.20;;;13.80;99.90;;;;;;5047902;28;20402;-68
2022/05/30 12:42:56;;;;;;;1.42;0.60;;;13.80;99.90;;;;;;5049025;28;20045;-68
2022/05/30 12:45:35;;;;;;;3.95;1.05;;;13.90;99.90;;;;;;5043200;28;20395;-67
2022/05/30 12:48:24;;;;;;;2.63;0.80;;;13.90;99.90;;;;;;5035367;28;20113;-67
2022/05/30 12:50:49;;;;;;;2.75;1.05;;;14.00;99.90;;;;;;5039358;28;20394;-67
2022/05/30 12:53:15;;;;;;;2.60;0.88;;;14.00;99.90;;;;;;5032182;28;20041;-69
2022/05/30 12:55:50;;;;;;;4.93;0.85;;;14.10;99.90;;;;;;5050312;28;20033;-67
2022/05/30 12:59:20;;;;;;;5.90;2.60;;;14.30;99.90;;;;;;5049305;28;20037;-66
2022/05/30 13:01:45;;;;;;;2.42;1.08;;;14.40;99.90;;;;;;5008144;28;20042;-71
2022/05/30 13:04:25;;;;;;;2.40;0.63;;;14.50;99.90;;;;;;5002866;28;20041;-71
2022/05/30 13:07:16;;;;;;;0.95;0.47;;;14.50;99.90;;;;;;5020613;28;20045;-71
2022/05/30 13:09:47;;;;;;;1.70;0.88;;;14.60;99.90;;;;;;5047982;28;20033;-71
2022/05/30 13:12:17;;;;;;;3.20;1.58;;;14.70;99.90;;;;;;5041007;28;20048;-69
2022/05/30 13:14:48;;;;;;;1.70;0.68;;;15.10;99.90;;;;;;5049976;28;20397;-71
2022/05/30 13:17:22;;;;;;;1.95;0.70;;;15.10;99.90;;;;;;5051921;28;20041;-69
2022/05/30 13:20:11;;;;;;;3.30;0.70;;;15.20;99.90;;;;;;5050353;28;20053;-70
2022/05/30 13:23:16;;;;;;;2.78;1.05;;;;;;;;;;5051282;28;20033;-71
2022/05/30 13:25:50;;;;;;;2.40;0.77;;;15.30;99.90;;;;;;5009819;28;20053;-69
2022/05/30 13:28:28;;;;;;;3.67;0.88;;;15.30;99.90;;;;;;4994107;28;20042;-70
2022/05/30 13:30:55;;;;;;;3.50;0.85;;;15.20;99.90;;;;;;5014975;28;20084;-72
2022/05/30 13:33:32;;;;;;;3.10;0.70;;;14.90;99.90;;;;;;5041002;28;20044;-68
2022/05/30 13:36:04;;;;;;;8.80;2.17;;;14.80;99.90;;;;;;5052419;28;20149;-66
2022/05/30 13:38:37;;;;;;;4.35;1.35;;;14.60;99.90;;;;;;5056066;28;20394;-71
2022/05/30 13:41:24;;;;;;;2.53;0.90;;;14.60;99.90;;;;;;5055408;28;20040;-68
2022/05/30 13:43:51;;;;;;;7.68;1.65;;;14.40;99.90;;;;;;5048578;28;20029;-69